Time,TemperatureF,DewpointF,PressureIn,WindDirection,WindDirectionDegrees,WindSpeedMPH,WindSpeedGustMPH,Humidity,HourlyPrecipIn,Conditions,Clouds,dailyrainin,SolarRadiationWatts/m^2,SoftwareType,DateUTC
2013-06-15 00:02:00,58.0,48.0,30.10,SE,136,1.0,4.0,70,0.00,,,0.00,0.000000,,2013-06-15 05:02:00,
2013-06-15 00:12:00,57.0,48.0,30.09,SE,132,1.0,4.0,71,0.00,,,0.00,0.000000,,2013-06-15 05:12:00,
2013-06-15 00:22:00,57.0,48.0,30.10,SSW,198,1.0,4.0,72,0.00,,,0.00,0.000000,,2013-06-15 05:22:00,
2013-06-15 00:34:00,57.0,48.0,30.10,South,183,1.0,6.0,72,0.00,,,0.00,0.000000,,2013-06-15 05:34:00,
2013-06-15 00:42:00,57.0,48.0,30.10,SSE,164,0.0,3.0,72,0.00,,,0.00,0.000000,,2013-06-15 05:42:00,
2013-06-15 00:52:00,57.0,48.0,30.10,SE,136,1.0,3.0,73,0.00,,,0.00,0.000000,,2013-06-15 05:52:00,
2013-06-15 01:02:00,57.0,48.0,30.10,SE,144,1.0,2.0,72,0.00,,,0.00,0.000000,,2013-06-15 06:02:00,
2013-06-15 01:12:00,57.0,48.0,30.11,SE,129,0.0,3.0,72,0.00,,,0.00,0.000000,,2013-06-15 06:12:00,
2013-06-15 01:24:00,57.0,48.0,30.11,ESE,121,1.0,5.0,72,0.00,,,0.00,0.000000,,2013-06-15 06:24:00,
2013-06-15 01:33:00,57.0,48.0,30.11,SE,140,1.0,4.0,71,0.00,,,0.00,0.000000,,2013-06-15 06:33:00,
2013-06-15 01:43:00,57.0,48.0,30.10,ESE,121,1.0,3.0,72,0.00,,,0.00,0.000000,,2013-06-15 06:43:00,
2013-06-15 01:53:00,57.0,48.0,30.11,ESE,122,0.0,3.0,72,0.00,,,0.00,0.000000,,2013-06-15 06:53:00,
2013-06-15 02:01:00,56.0,47.0,30.09,SSE,149,0.0,2.0,73,0.00,,,0.00,0.000000,,2013-06-15 07:01:00,
2013-06-15 02:11:00,56.0,48.0,30.09,SSE,155,1.0,3.0,74,0.00,,,0.00,0.000000,,2013-06-15 07:11:00,
2013-06-15 02:23:00,56.0,48.0,30.09,South,171,1.0,5.0,75,0.00,,,0.00,0.000000,,2013-06-15 07:23:00,
2013-06-15 02:33:00,56.0,48.0,30.08,SSW,213,1.0,4.0,75,0.00,,,0.00,0.000000,,2013-06-15 07:33:00,
2013-06-15 02:43:00,56.0,47.0,30.08,SW,229,2.0,6.0,73,0.00,,,0.00,0.000000,,2013-06-15 07:43:00,
2013-06-15 02:53:00,57.0,48.0,30.08,WSW,239,2.0,7.0,71,0.00,,,0.00,0.000000,,2013-06-15 07:53:00,
2013-06-15 03:02:00,57.0,47.0,30.09,SSW,211,2.0,8.0,70,0.00,,,0.00,0.000000,,2013-06-15 08:02:00,
2013-06-15 03:11:00,58.0,48.0,30.09,South,185,0.0,5.0,70,0.00,,,0.00,0.000000,,2013-06-15 08:11:00,
2013-06-15 03:22:00,57.0,48.0,30.11,West,259,1.0,5.0,71,0.00,,,0.00,0.000000,,2013-06-15 08:22:00,
2013-06-15 03:33:00,58.0,49.0,30.12,West,261,0.0,4.0,71,0.00,,,0.00,0.000000,,2013-06-15 08:33:00,
2013-06-15 03:42:00,58.0,49.0,30.14,WNW,284,6.0,9.0,72,0.00,,,0.00,0.000000,,2013-06-15 08:42:00,
2013-06-15 03:53:00,57.0,49.0,30.14,WSW,255,0.0,9.0,75,0.00,,,0.00,0.000000,,2013-06-15 08:53:00,
2013-06-15 04:02:00,57.0,50.0,30.14,West,277,2.0,6.0,76,0.00,,,0.00,0.000000,,2013-06-15 09:02:00,
2013-06-15 04:12:00,57.0,50.0,30.13,SW,234,1.0,6.0,76,0.00,,,0.00,0.000000,,2013-06-15 09:12:00,
2013-06-15 04:22:00,56.0,50.0,30.13,WSW,248,3.0,6.0,80,0.00,,,0.00,0.000000,,2013-06-15 09:22:00,
2013-06-15 04:33:00,56.0,51.0,30.13,WNW,292,2.0,5.0,84,0.00,,,0.00,0.000000,,2013-06-15 09:33:00,
2013-06-15 04:43:00,56.0,52.0,30.14,WNW,292,3.0,7.0,86,0.02,,,0.02,0.000000,,2013-06-15 09:43:00,
2013-06-15 04:52:00,55.0,52.0,30.13,West,267,1.0,6.0,89,0.05,,,0.05,0.000000,,2013-06-15 09:52:00,
2013-06-15 05:02:00,55.0,52.0,30.11,ESE,121,1.0,3.0,91,0.08,,,0.08,0.000000,,2013-06-15 10:02:00,
2013-06-15 05:11:00,55.0,53.0,30.10,SSE,162,1.0,4.0,92,0.10,,,0.10,0.000000,,2013-06-15 10:11:00,
2013-06-15 05:23:00,55.0,53.0,30.10,SW,232,1.0,3.0,93,0.10,,,0.10,0.000000,,2013-06-15 10:23:00,
2013-06-15 05:33:00,55.0,53.0,30.09,SSW,211,2.0,6.0,93,0.10,,,0.10,0.000000,,2013-06-15 10:33:00,
2013-06-15 05:44:00,55.0,53.0,30.10,WSW,258,3.0,8.0,93,0.08,,,0.10,0.000000,,2013-06-15 10:44:00,
2013-06-15 05:53:00,55.0,53.0,30.09,South,185,4.0,8.0,93,0.07,,,0.12,0.000000,,2013-06-15 10:53:00,
2013-06-15 06:02:00,56.0,54.0,30.09,SW,214,4.0,8.0,93,0.05,,,0.13,0.000000,,2013-06-15 11:02:00,
2013-06-15 06:11:00,56.0,54.0,30.09,SW,223,3.0,8.0,93,0.06,,,0.16,5.000000,,2013-06-15 11:11:00,
2013-06-15 06:22:00,56.0,54.0,30.09,SW,225,2.0,9.0,94,0.11,,,0.21,9.000000,,2013-06-15 11:22:00,
2013-06-15 06:33:00,56.0,55.0,30.08,SSW,205,2.0,8.0,95,0.13,,,0.23,14.000000,,2013-06-15 11:33:00,
2013-06-15 06:43:00,57.0,56.0,30.08,SSW,201,4.0,10.0,95,0.14,,,0.24,21.000000,,2013-06-15 11:43:00,
2013-06-15 06:53:00,57.0,56.0,30.08,SSW,203,3.0,8.0,95,0.12,,,0.24,21.000000,,2013-06-15 11:53:00,
2013-06-15 07:01:00,57.0,56.0,30.07,SW,221,2.0,7.0,95,0.11,,,0.24,26.000000,,2013-06-15 12:01:00,
2013-06-15 07:12:00,57.0,56.0,30.07,WNW,298,3.0,7.0,95,0.08,,,0.24,39.000000,,2013-06-15 12:12:00,
2013-06-15 07:22:00,57.0,56.0,30.07,SW,228,2.0,8.0,95,0.03,,,0.24,40.000000,,2013-06-15 12:22:00,
2013-06-15 07:33:00,57.0,56.0,30.06,SSW,201,2.0,7.0,96,0.01,,,0.24,33.000000,,2013-06-15 12:33:00,
2013-06-15 07:43:00,58.0,57.0,30.05,SW,227,3.0,7.0,96,0.02,,,0.26,47.000000,,2013-06-15 12:43:00,
2013-06-15 07:52:00,58.0,57.0,30.05,SSE,165,3.0,10.0,96,0.02,,,0.26,67.000000,,2013-06-15 12:52:00,
2013-06-15 08:02:00,58.0,57.0,30.05,SW,215,3.0,10.0,95,0.02,,,0.26,63.000000,,2013-06-15 13:02:00,
2013-06-15 08:11:00,58.0,57.0,30.06,SSW,197,1.0,8.0,95,0.02,,,0.26,70.000000,,2013-06-15 13:11:00,
2013-06-15 08:22:00,58.0,57.0,30.05,SSW,202,1.0,6.0,95,0.02,,,0.26,69.000000,,2013-06-15 13:22:00,
2013-06-15 08:32:00,59.0,58.0,30.04,South,185,1.0,4.0,95,0.02,,,0.26,91.000000,,2013-06-15 13:32:00,
2013-06-15 08:43:00,59.0,58.0,30.03,SSW,200,2.0,6.0,95,0.00,,,0.26,128.000000,,2013-06-15 13:43:00,
2013-06-15 08:53:00,59.0,58.0,30.04,South,184,0.0,7.0,96,0.00,,,0.26,120.000000,,2013-06-15 13:53:00,
2013-06-15 09:01:00,59.0,58.0,30.04,WSW,253,1.0,8.0,95,0.00,,,0.26,86.000000,,2013-06-15 14:01:00,
2013-06-15 09:12:00,60.0,59.0,30.03,SSE,151,0.0,4.0,96,0.00,,,0.26,135.000000,,2013-06-15 14:12:00,
2013-06-15 09:22:00,60.0,59.0,30.03,ESE,123,1.0,5.0,96,0.00,,,0.26,142.000000,,2013-06-15 14:22:00,
2013-06-15 09:34:00,60.0,59.0,30.03,SSE,156,0.0,2.0,96,0.00,,,0.26,146.000000,,2013-06-15 14:34:00,
2013-06-15 09:43:00,61.0,60.0,30.01,South,180,2.0,7.0,96,0.00,,,0.26,148.000000,,2013-06-15 14:43:00,
2013-06-15 09:53:00,61.0,60.0,30.03,East,80,1.0,9.0,96,0.00,,,0.26,183.000000,,2013-06-15 14:53:00,
2013-06-15 10:02:00,62.0,61.0,30.03,SW,223,1.0,6.0,96,0.00,,,0.26,285.000000,,2013-06-15 15:02:00,
2013-06-15 10:11:00,63.0,61.0,30.03,SW,229,2.0,6.0,94,0.00,,,0.26,288.000000,,2013-06-15 15:11:00,
2013-06-15 10:22:00,63.0,61.0,30.05,SW,232,1.0,5.0,93,0.00,,,0.26,341.000000,,2013-06-15 15:22:00,
2013-06-15 10:33:00,64.0,62.0,30.05,West,267,0.0,7.0,93,0.00,,,0.26,248.000000,,2013-06-15 15:33:00,
2013-06-15 10:43:00,64.0,61.0,30.05,South,169,1.0,9.0,90,0.00,,,0.26,199.000000,,2013-06-15 15:43:00,
2013-06-15 10:53:00,64.0,61.0,30.05,SE,146,0.0,4.0,90,0.00,,,0.26,163.000000,,2013-06-15 15:53:00,
2013-06-15 11:01:00,63.0,60.0,30.06,SSW,206,1.0,7.0,90,0.00,,,0.26,225.000000,,2013-06-15 16:01:00,
2013-06-15 11:11:00,64.0,61.0,30.05,WSW,242,1.0,3.0,91,0.00,,,0.26,297.000000,,2013-06-15 16:11:00,
2013-06-15 11:22:00,65.0,61.0,30.05,SW,220,1.0,4.0,87,0.00,,,0.26,418.000000,,2013-06-15 16:22:00,
2013-06-15 11:33:00,65.0,61.0,30.05,East,86,2.0,5.0,86,0.00,,,0.26,675.000000,,2013-06-15 16:33:00,
2013-06-15 11:43:00,66.0,61.0,30.04,SSE,150,2.0,11.0,85,0.00,,,0.26,369.000000,,2013-06-15 16:43:00,
2013-06-15 11:53:00,66.0,62.0,30.05,South,171,3.0,7.0,86,0.00,,,0.26,378.000000,,2013-06-15 16:53:00,
2013-06-15 12:02:00,67.0,63.0,30.05,South,180,0.0,5.0,86,0.00,,,0.26,654.000000,,2013-06-15 17:02:00,
2013-06-15 12:12:00,69.0,64.0,30.05,SSW,211,3.0,7.0,85,0.00,,,0.26,448.000000,,2013-06-15 17:12:00,
2013-06-15 12:21:00,68.0,63.0,30.05,SSW,205,2.0,7.0,84,0.00,,,0.26,489.000000,,2013-06-15 17:21:00,
2013-06-15 12:32:00,69.0,64.0,30.06,South,185,1.0,7.0,83,0.00,,,0.26,612.000000,,2013-06-15 17:32:00,
2013-06-15 12:43:00,69.0,64.0,30.05,SSW,207,1.0,6.0,84,0.00,,,0.26,478.000000,,2013-06-15 17:43:00,
2013-06-15 12:52:00,70.0,66.0,30.04,WSW,245,1.0,5.0,86,0.00,,,0.26,759.000000,,2013-06-15 17:52:00,
2013-06-15 13:01:00,71.0,65.0,30.05,SW,229,1.0,6.0,82,0.00,,,0.26,497.000000,,2013-06-15 18:01:00,
2013-06-15 13:12:00,72.0,67.0,30.04,SW,223,0.0,5.0,83,0.00,,,0.26,476.000000,,2013-06-15 18:12:00,
2013-06-15 13:22:00,71.0,66.0,30.05,West,278,1.0,7.0,83,0.00,,,0.26,457.000000,,2013-06-15 18:22:00,
2013-06-15 13:32:00,72.0,66.0,30.04,SW,223,2.0,6.0,81,0.00,,,0.26,427.000000,,2013-06-15 18:32:00,
2013-06-15 13:43:00,73.0,66.0,30.05,West,272,1.0,9.0,80,0.00,,,0.26,387.000000,,2013-06-15 18:43:00,
2013-06-15 13:53:00,73.0,66.0,30.05,WSW,242,3.0,6.0,79,0.00,,,0.26,376.000000,,2013-06-15 18:53:00,
2013-06-15 14:01:00,72.0,65.0,30.06,West,263,4.0,10.0,80,0.00,,,0.26,345.000000,,2013-06-15 19:01:00,
2013-06-15 14:11:00,73.0,66.0,30.05,WNW,292,2.0,8.0,79,0.00,,,0.26,374.000000,,2013-06-15 19:11:00,
2013-06-15 14:22:00,73.0,67.0,30.04,West,279,0.0,5.0,81,0.00,,,0.26,431.000000,,2013-06-15 19:22:00,
2013-06-15 14:33:00,74.0,67.0,30.03,WNW,293,3.0,6.0,78,0.00,,,0.26,489.000000,,2013-06-15 19:33:00,
2013-06-15 14:43:00,74.0,66.0,30.03,WNW,283,2.0,5.0,77,0.00,,,0.26,536.000000,,2013-06-15 19:43:00,
2013-06-15 14:52:00,75.0,67.0,30.03,WNW,291,3.0,5.0,75,0.00,,,0.26,517.000000,,2013-06-15 19:52:00,
2013-06-15 15:02:00,75.0,66.0,30.02,South,190,1.0,7.0,74,0.00,,,0.26,759.000000,,2013-06-15 20:02:00,
2013-06-15 15:11:00,76.0,67.0,30.02,WSW,241,3.0,7.0,73,0.00,,,0.26,541.000000,,2013-06-15 20:11:00,
2013-06-15 15:22:00,75.0,67.0,30.02,West,270,2.0,8.0,75,0.00,,,0.26,343.000000,,2013-06-15 20:22:00,
2013-06-15 15:33:00,75.0,67.0,30.02,West,277,2.0,7.0,76,0.00,,,0.26,417.000000,,2013-06-15 20:33:00,
2013-06-15 15:43:00,75.0,67.0,30.01,WSW,242,1.0,8.0,76,0.00,,,0.26,837.000000,,2013-06-15 20:43:00,
2013-06-15 15:52:00,75.0,67.0,30.00,SW,234,3.0,9.0,76,0.00,,,0.26,322.000000,,2013-06-15 20:52:00,
2013-06-15 16:01:00,75.0,67.0,30.00,SW,229,2.0,6.0,76,0.00,,,0.26,557.000000,,2013-06-15 21:01:00,
2013-06-15 16:12:00,76.0,67.0,29.99,SW,232,4.0,11.0,75,0.00,,,0.26,715.000000,,2013-06-15 21:12:00,
2013-06-15 16:22:00,76.0,67.0,29.98,South,180,1.0,7.0,75,0.00,,,0.26,462.000000,,2013-06-15 21:22:00,
2013-06-15 16:33:00,76.0,68.0,29.98,SSW,208,2.0,9.0,76,0.00,,,0.26,422.000000,,2013-06-15 21:33:00,
2013-06-15 16:42:00,76.0,68.0,29.98,WSW,240,4.0,10.0,76,0.00,,,0.26,483.000000,,2013-06-15 21:42:00,
2013-06-15 16:52:00,76.0,68.0,29.97,SW,227,3.0,10.0,77,0.00,,,0.26,417.000000,,2013-06-15 21:52:00,
2013-06-15 17:01:00,76.0,68.0,29.96,SW,229,2.0,14.0,76,0.00,,,0.26,471.000000,,2013-06-15 22:01:00,
2013-06-15 17:11:00,76.0,68.0,29.95,South,171,3.0,13.0,77,0.00,,,0.26,236.000000,,2013-06-15 22:11:00,
2013-06-15 17:22:00,75.0,68.0,29.95,SSE,167,3.0,13.0,79,0.00,,,0.26,225.000000,,2013-06-15 22:22:00,
2013-06-15 17:32:00,74.0,68.0,29.95,SE,133,2.0,10.0,82,0.00,,,0.26,570.000000,,2013-06-15 22:32:00,
2013-06-15 17:42:00,75.0,68.0,29.94,SSW,198,3.0,7.0,80,0.00,,,0.26,538.000000,,2013-06-15 22:42:00,
2013-06-15 17:53:00,75.0,68.0,29.93,ESE,118,3.0,9.0,80,0.00,,,0.26,589.000000,,2013-06-15 22:53:00,
2013-06-15 18:02:00,75.0,69.0,29.93,SE,144,2.0,11.0,81,0.00,,,0.26,543.000000,,2013-06-15 23:02:00,
2013-06-15 18:11:00,74.0,68.0,29.92,SE,131,3.0,14.0,81,0.00,,,0.26,367.000000,,2013-06-15 23:11:00,
2013-06-15 18:22:00,74.0,68.0,29.92,SSW,211,2.0,13.0,82,0.00,,,0.26,350.000000,,2013-06-15 23:22:00,
2013-06-15 18:33:00,74.0,68.0,29.93,SW,229,3.0,11.0,82,0.00,,,0.26,334.000000,,2013-06-15 23:33:00,
2013-06-15 18:42:00,74.0,68.0,29.93,SSW,207,3.0,12.0,82,0.00,,,0.26,283.000000,,2013-06-15 23:42:00,
2013-06-15 18:53:00,74.0,68.0,29.92,SSW,198,4.0,8.0,83,0.00,,,0.26,127.000000,,2013-06-15 23:53:00,
2013-06-15 19:01:00,73.0,68.0,29.91,South,180,2.0,10.0,84,0.00,,,0.26,123.000000,,2013-06-16 00:01:00,
2013-06-15 19:11:00,73.0,68.0,29.91,South,190,1.0,7.0,85,0.00,,,0.26,88.000000,,2013-06-16 00:11:00,
2013-06-15 19:22:00,73.0,68.0,29.91,SSE,148,1.0,7.0,85,0.00,,,0.26,218.000000,,2013-06-16 00:22:00,
2013-06-15 19:33:00,73.0,68.0,29.91,SSE,150,2.0,9.0,85,0.00,,,0.26,155.000000,,2013-06-16 00:33:00,
2013-06-15 19:43:00,73.0,68.0,29.90,SSW,209,1.0,8.0,85,0.00,,,0.26,60.000000,,2013-06-16 00:43:00,
2013-06-15 19:52:00,72.0,68.0,29.90,SSE,158,1.0,7.0,86,0.00,,,0.26,39.000000,,2013-06-16 00:52:00,
2013-06-15 20:01:00,72.0,68.0,29.91,SSE,153,1.0,7.0,87,0.00,,,0.26,12.000000,,2013-06-16 01:01:00,
2013-06-15 20:11:00,72.0,68.0,29.90,SSW,200,2.0,7.0,87,0.00,,,0.26,0.000000,,2013-06-16 01:11:00,
2013-06-15 20:22:00,71.0,67.0,29.91,SSW,209,1.0,7.0,87,0.00,,,0.26,0.000000,,2013-06-16 01:22:00,
2013-06-15 20:33:00,71.0,67.0,29.91,South,179,2.0,8.0,87,0.00,,,0.26,0.000000,,2013-06-16 01:33:00,
2013-06-15 20:42:00,71.0,67.0,29.91,SSW,196,1.0,6.0,88,0.00,,,0.26,0.000000,,2013-06-16 01:42:00,
2013-06-15 20:53:00,71.0,67.0,29.90,South,171,2.0,7.0,88,0.00,,,0.26,0.000000,,2013-06-16 01:53:00,
2013-06-15 21:01:00,71.0,67.0,29.90,SSW,198,2.0,6.0,88,0.00,,,0.26,0.000000,,2013-06-16 02:01:00,
2013-06-15 21:12:00,71.0,68.0,29.90,SSW,205,1.0,6.0,89,0.00,,,0.26,0.000000,,2013-06-16 02:12:00,
2013-06-15 21:22:00,71.0,68.0,29.90,SW,222,2.0,5.0,89,0.00,,,0.26,0.000000,,2013-06-16 02:22:00,
2013-06-15 21:33:00,71.0,68.0,29.91,SW,219,4.0,7.0,89,0.00,,,0.26,0.000000,,2013-06-16 02:33:00,
2013-06-15 21:43:00,71.0,68.0,29.89,SSW,201,4.0,9.0,89,0.00,,,0.26,0.000000,,2013-06-16 02:43:00,
2013-06-15 21:53:00,71.0,68.0,29.90,WSW,256,4.0,9.0,90,0.01,,,0.27,0.000000,,2013-06-16 02:53:00,
2013-06-15 22:02:00,71.0,68.0,29.91,WSW,237,3.0,9.0,91,0.01,,,0.27,0.000000,,2013-06-16 03:02:00,
2013-06-15 22:12:00,72.0,69.0,29.90,West,279,4.0,14.0,89,0.02,,,0.28,0.000000,,2013-06-16 03:12:00,
2013-06-15 22:22:00,73.0,69.0,29.90,SW,224,5.0,16.0,86,0.02,,,0.28,0.000000,,2013-06-16 03:22:00,
2013-06-15 22:33:00,73.0,69.0,29.91,WSW,245,5.0,15.0,86,0.02,,,0.28,0.000000,,2013-06-16 03:33:00,
2013-06-15 22:43:00,71.0,66.0,29.92,WNW,300,14.0,34.0,85,0.38,,,0.64,0.000000,,2013-06-16 03:43:00,
2013-06-15 22:53:00,67.0,65.0,29.90,SSW,210,5.0,19.0,92,0.47,,,0.74,0.000000,,2013-06-16 03:53:00,
2013-06-15 23:02:00,67.0,65.0,29.89,West,269,3.0,7.0,94,0.47,,,0.74,0.000000,,2013-06-16 04:02:00,
2013-06-15 23:12:00,67.0,66.0,29.89,WSW,241,3.0,6.0,95,0.46,,,0.74,0.000000,,2013-06-16 04:12:00,
2013-06-15 23:23:00,68.0,67.0,29.90,WSW,251,4.0,10.0,95,0.46,,,0.74,0.000000,,2013-06-16 04:23:00,
2013-06-15 23:33:00,68.0,67.0,29.93,NNE,22,9.0,18.0,95,0.47,,,0.75,0.000000,,2013-06-16 04:33:00,
2013-06-15 23:42:00,66.0,64.0,29.92,North,355,11.0,22.0,93,0.70,,,1.34,0.000000,,2013-06-16 04:42:00,
2013-06-15 23:53:00,66.0,65.0,29.93,NW,319,11.0,23.0,96,1.06,,,1.80,0.000000,,2013-06-16 04:53:00,